sensor_id;sensor_type;location;lat;lon;timestamp;P1;P2;P0
62778;PMS7003;48821;48.796;2.396;2022-12-22T00:00:42;2.00;1.00;0.00
62778;PMS7003;48821;48.796;2.396;2022-12-22T00:02:18;1.75;1.75;1.00
62778;PMS7003;48821;48.796;2.396;2022-12-22T00:03:48;1.25;0.25;0.00
62778;PMS7003;48821;48.796;2.396;2022-12-22T00:05:21;1.00;0.50;0.00
62778;PMS7003;48821;48.796;2.396;2022-12-22T00:06:51;1.50;1.00;0.25
62778;PMS7003;48821;48.796;2.396;2022-12-22T00:08:20;1.75;1.75;1.00
62778;PMS7003;48821;48.796;2.396;2022-12-22T00:09:49;1.25;0.25;0.00
62778;PMS7003;48821;48.796;2.396;2022-12-22T00:11:18;4.00;0.75;0.00
62778;PMS7003;48821;48.796;2.396;2022-12-22T00:12:47;2.50;0.75;0.00
62778;PMS7003;48821;48.796;2.396;2022-12-22T00:14:16;1.00;1.00;0.00
62778;PMS7003;48821;48.796;2.396;2022-12-22T00:15:45;1.00;0.00;0.00
62778;PMS7003;48821;48.796;2.396;2022-12-22T00:17:22;2.25;0.25;0.25
62778;PMS7003;48821;48.796;2.396;2022-12-22T00:18:53;1.00;0.25;0.00
62778;PMS7003;48821;48.796;2.396;2022-12-22T00:20:22;1.00;0.75;0.50
62778;PMS7003;48821;48.796;2.396;2022-12-22T00:21:51;0.75;0.00;0.00
62778;PMS7003;48821;48.796;2.396;2022-12-22T00:23:20;3.25;0.00;0.00
62778;PMS7003;48821;48.796;2.396;2022-12-22T00:24:49;0.00;0.00;0.00
62778;PMS7003;48821;48.796;2.396;2022-12-22T00:26:18;2.00;1.00;0.00
62778;PMS7003;48821;48.796;2.396;2022-12-22T00:27:47;5.25;1.00;0.00
62778;PMS7003;48821;48.796;2.396;2022-12-22T00:29:16;1.25;1.25;0.50
62778;PMS7003;48821;48.796;2.396;2022-12-22T00:30:45;2.75;1.00;1.00
62778;PMS7003;48821;48.796;2.396;2022-12-22T00:32:15;1.00;1.00;0.00
62778;PMS7003;48821;48.796;2.396;2022-12-22T00:33:43;5.00;2.00;1.00
62778;PMS7003;48821;48.796;2.396;2022-12-22T00:35:13;1.00;0.00;0.00
62778;PMS7003;48821;48.796;2.396;2022-12-22T00:36:42;1.50;1.50;0.50
62778;PMS7003;48821;48.796;2.396;2022-12-22T00:38:19;0.00;0.00;0.00
62778;PMS7003;48821;48.796;2.396;2022-12-22T00:39:49;1.75;1.75;1.00
62778;PMS7003;48821;48.796;2.396;2022-12-22T00:41:17;2.00;2.00;1.00
62778;PMS7003;48821;48.796;2.396;2022-12-22T00:42:46;2.25;2.00;1.00
62778;PMS7003;48821;48.796;2.396;2022-12-22T00:44:16;1.00;1.00;0.50
62778;PMS7003;48821;48.796;2.396;2022-12-22T00:45:44;3.50;2.00;1.50
62778;PMS7003;48821;48.796;2.396;2022-12-22T00:47:32;1.00;1.00;1.00
62778;PMS7003;48821;48.796;2.396;2022-12-22T00:49:01;1.00;1.00;0.00
62778;PMS7003;48821;48.796;2.396;2022-12-22T00:50:32;2.00;1.00;1.00
62778;PMS7003;48821;48.796;2.396;2022-12-22T00:52:03;2.75;1.00;0.50
62778;PMS7003;48821;48.796;2.396;2022-12-22T00:53:32;2.00;1.00;0.75
62778;PMS7003;48821;48.796;2.396;2022-12-22T00:55:02;1.00;1.00;1.00
62778;PMS7003;48821;48.796;2.396;2022-12-22T00:56:33;1.75;0.50;0.00
62778;PMS7003;48821;48.796;2.396;2022-12-22T00:58:02;2.00;1.00;1.00
62778;PMS7003;48821;48.796;2.396;2022-12-22T00:59:34;1.75;1.50;0.75
62778;PMS7003;48821;48.796;2.396;2022-12-22T01:01:03;2.00;1.00;0.00
62778;PMS7003;48821;48.796;2.396;2022-12-22T01:02:32;1.25;0.75;0.00
62778;PMS7003;48821;48.796;2.396;2022-12-22T01:04:02;2.00;2.00;1.00
62778;PMS7003;48821;48.796;2.396;2022-12-22T01:05:31;0.00;0.00;0.00
62778;PMS7003;48821;48.796;2.396;2022-12-22T01:07:00;2.75;1.00;0.50
62778;PMS7003;48821;48.796;2.396;2022-12-22T01:08:29;1.00;1.00;1.00
62778;PMS7003;48821;48.796;2.396;2022-12-22T01:09:58;3.75;0.00;0.00
62778;PMS7003;48821;48.796;2.396;2022-12-22T01:11:28;1.00;0.75;0.00
62778;PMS7003;48821;48.796;2.396;2022-12-22T01:12:58;3.00;0.50;0.00
62778;PMS7003;48821;48.796;2.396;2022-12-22T01:14:27;1.75;0.75;0.50
62778;PMS7003;48821;48.796;2.396;2022-12-22T01:15:56;0.75;0.75;0.00
62778;PMS7003;48821;48.796;2.396;2022-12-22T01:17:25;2.50;0.75;0.00
62778;PMS7003;48821;48.796;2.396;2022-12-22T01:18:54;0.00;0.00;0.00
62778;PMS7003;48821;48.796;2.396;2022-12-22T01:20:23;2.50;1.00;1.00
62778;PMS7003;48821;48.796;2.396;2022-12-22T01:21:52;0.50;0.25;0.00
62778;PMS7003;48821;48.796;2.396;2022-12-22T01:23:21;2.00;0.50;0.00
62778;PMS7003;48821;48.796;2.396;2022-12-22T01:24:50;0.50;0.50;0.00
62778;PMS7003;48821;48.796;2.396;2022-12-22T01:26:19;2.00;0.00;0.00
62778;PMS7003;48821;48.796;2.396;2022-12-22T01:27:48;2.75;1.00;0.25
62778;PMS7003;48821;48.796;2.396;2022-12-22T01:29:17;0.00;0.00;0.00
62778;PMS7003;48821;48.796;2.396;2022-12-22T01:30:46;1.50;1.25;1.00
62778;PMS7003;48821;48.796;2.396;2022-12-22T01:32:15;2.25;0.75;0.00
62778;PMS7003;48821;48.796;2.396;2022-12-22T01:33:44;1.00;0.00;0.00
62778;PMS7003;48821;48.796;2.396;2022-12-22T01:35:20;0.75;0.75;0.00
62778;PMS7003;48821;48.796;2.396;2022-12-22T01:36:51;3.25;1.00;0.50
62778;PMS7003;48821;48.796;2.396;2022-12-22T01:38:20;0.00;0.00;0.00
62778;PMS7003;48821;48.796;2.396;2022-12-22T01:39:49;1.25;1.25;1.00
62778;PMS7003;48821;48.796;2.396;2022-12-22T01:41:18;2.25;0.00;0.00
62778;PMS7003;48821;48.796;2.396;2022-12-22T01:42:48;1.50;0.00;0.00
62778;PMS7003;48821;48.796;2.396;2022-12-22T01:44:17;2.00;0.00;0.00
62778;PMS7003;48821;48.796;2.396;2022-12-22T01:45:46;2.25;2.00;1.00
62778;PMS7003;48821;48.796;2.396;2022-12-22T01:48:59;3.50;1.00;0.75
62778;PMS7003;48821;48.796;2.396;2022-12-22T01:50:29;4.00;0.75;0.00
62778;PMS7003;48821;48.796;2.396;2022-12-22T01:52:02;2.00;1.50;1.00
62778;PMS7003;48821;48.796;2.396;2022-12-22T01:53:32;3.75;1.00;0.00
62778;PMS7003;48821;48.796;2.396;2022-12-22T01:55:04;2.00;1.75;1.00
62778;PMS7003;48821;48.796;2.396;2022-12-22T01:56:35;1.00;0.00;0.00
62778;PMS7003;48821;48.796;2.396;2022-12-22T01:58:05;1.25;1.00;0.25
62778;PMS7003;48821;48.796;2.396;2022-12-22T01:59:43;1.50;1.50;1.00
62778;PMS7003;48821;48.796;2.396;2022-12-22T02:01:12;1.00;0.00;0.00
62778;PMS7003;48821;48.796;2.396;2022-12-22T02:02:41;1.50;0.00;0.00
62778;PMS7003;48821;48.796;2.396;2022-12-22T02:04:10;2.00;0.75;0.00
62778;PMS7003;48821;48.796;2.396;2022-12-22T02:05:48;0.75;0.75;0.00
62778;PMS7003;48821;48.796;2.396;2022-12-22T02:09:19;2.50;2.00;1.00
62778;PMS7003;48821;48.796;2.396;2022-12-22T02:14:49;3.00;1.50;0.50
62778;PMS7003;48821;48.796;2.396;2022-12-22T02:16:45;7.00;1.00;0.00
62778;PMS7003;48821;48.796;2.396;2022-12-22T02:18:22;2.50;1.00;0.25
62778;PMS7003;48821;48.796;2.396;2022-12-22T02:21:57;5.25;1.75;0.75
62778;PMS7003;48821;48.796;2.396;2022-12-22T02:27:47;2.00;0.75;0.75
62778;PMS7003;48821;48.796;2.396;2022-12-22T02:29:20;4.25;1.50;1.25
62778;PMS7003;48821;48.796;2.396;2022-12-22T02:30:55;2.50;1.50;1.00
62778;PMS7003;48821;48.796;2.396;2022-12-22T02:32:24;3.75;1.25;0.50
62778;PMS7003;48821;48.796;2.396;2022-12-22T02:33:54;3.00;2.00;1.00
62778;PMS7003;48821;48.796;2.396;2022-12-22T02:35:23;5.00;1.50;1.00
62778;PMS7003;48821;48.796;2.396;2022-12-22T02:38:59;5.50;2.00;0.75
62778;PMS7003;48821;48.796;2.396;2022-12-22T02:42:30;3.00;2.00;1.00
62778;PMS7003;48821;48.796;2.396;2022-12-22T02:44:24;3.00;2.00;1.00
62778;PMS7003;48821;48.796;2.396;2022-12-22T02:47:46;3.25;1.50;1.00
62778;PMS7003;48821;48.796;2.396;2022-12-22T02:49:37;8.00;1.25;1.00
62778;PMS7003;48821;48.796;2.396;2022-12-22T02:51:13;2.50;2.00;1.00
62778;PMS7003;48821;48.796;2.396;2022-12-22T02:52:46;2.75;1.25;0.75
62778;PMS7003;48821;48.796;2.396;2022-12-22T02:54:18;0.00;0.00;0.00
62778;PMS7003;48821;48.796;2.396;2022-12-22T02:55:49;4.00;2.00;1.00
62778;PMS7003;48821;48.796;2.396;2022-12-22T02:57:24;2.00;1.00;0.25
62778;PMS7003;48821;48.796;2.396;2022-12-22T02:58:53;1.75;1.00;1.00
62778;PMS7003;48821;48.796;2.396;2022-12-22T03:00:22;2.00;1.00;1.00
62778;PMS7003;48821;48.796;2.396;2022-12-22T03:01:51;3.00;1.00;1.00
62778;PMS7003;48821;48.796;2.396;2022-12-22T03:03:20;2.75;2.75;1.00
62778;PMS7003;48821;48.796;2.396;2022-12-22T03:04:49;2.00;1.75;1.00
62778;PMS7003;48821;48.796;2.396;2022-12-22T03:06:18;3.00;1.00;0.00
62778;PMS7003;48821;48.796;2.396;2022-12-22T03:07:47;3.00;1.50;0.75
62778;PMS7003;48821;48.796;2.396;2022-12-22T03:09:16;2.00;0.75;0.00
62778;PMS7003;48821;48.796;2.396;2022-12-22T03:10:45;4.00;1.50;1.00
62778;PMS7003;48821;48.796;2.396;2022-12-22T03:12:14;2.50;1.00;1.00
62778;PMS7003;48821;48.796;2.396;2022-12-22T03:13:43;1.50;1.00;0.25
62778;PMS7003;48821;48.796;2.396;2022-12-22T03:15:12;7.75;3.00;1.00
62778;PMS7003;48821;48.796;2.396;2022-12-22T03:16:41;3.25;2.50;1.25
62778;PMS7003;48821;48.796;2.396;2022-12-22T03:18:11;3.75;2.25;1.00
62778;PMS7003;48821;48.796;2.396;2022-12-22T03:19:40;5.50;2.25;1.00
62778;PMS7003;48821;48.796;2.396;2022-12-22T03:21:09;2.50;2.50;1.00
62778;PMS7003;48821;48.796;2.396;2022-12-22T03:22:38;5.00;2.00;1.00
62778;PMS7003;48821;48.796;2.396;2022-12-22T03:24:07;1.75;1.75;1.00
62778;PMS7003;48821;48.796;2.396;2022-12-22T03:25:36;5.25;1.75;1.00
62778;PMS7003;48821;48.796;2.396;2022-12-22T03:27:04;4.00;3.00;2.00
62778;PMS7003;48821;48.796;2.396;2022-12-22T03:28:15;4.75;2.00;1.00
62778;PMS7003;48821;48.796;2.396;2022-12-22T03:29:25;2.50;1.00;0.00
62778;PMS7003;48821;48.796;2.396;2022-12-22T03:30:36;3.00;3.00;2.00
62778;PMS7003;48821;48.796;2.396;2022-12-22T03:31:47;2.00;0.50;0.00
62778;PMS7003;48821;48.796;2.396;2022-12-22T03:32:57;3.00;1.75;1.00
62778;PMS7003;48821;48.796;2.396;2022-12-22T03:34:08;4.50;0.25;0.00
62778;PMS7003;48821;48.796;2.396;2022-12-22T03:35:18;2.75;0.00;0.00
62778;PMS7003;48821;48.796;2.396;2022-12-22T03:36:28;5.00;2.00;1.00
62778;PMS7003;48821;48.796;2.396;2022-12-22T03:37:39;1.50;0.50;0.00
62778;PMS7003;48821;48.796;2.396;2022-12-22T03:38:49;5.25;1.75;1.00
62778;PMS7003;48821;48.796;2.396;2022-12-22T03:39:59;2.75;2.00;1.00
62778;PMS7003;48821;48.796;2.396;2022-12-22T03:41:10;4.00;2.25;0.50
62778;PMS7003;48821;48.796;2.396;2022-12-22T03:42:40;5.25;2.00;1.00
62778;PMS7003;48821;48.796;2.396;2022-12-22T03:44:09;4.00;2.00;0.50
62778;PMS7003;48821;48.796;2.396;2022-12-22T03:45:38;0.75;0.50;0.50
62778;PMS7003;48821;48.796;2.396;2022-12-22T03:47:07;4.25;0.50;0.00
62778;PMS7003;48821;48.796;2.396;2022-12-22T03:48:17;2.50;1.75;1.00
62778;PMS7003;48821;48.796;2.396;2022-12-22T03:49:27;1.75;1.00;1.00
62778;PMS7003;48821;48.796;2.396;2022-12-22T03:50:38;5.50;2.00;1.00
62778;PMS7003;48821;48.796;2.396;2022-12-22T03:51:49;1.00;1.00;0.00
62778;PMS7003;48821;48.796;2.396;2022-12-22T03:53:00;4.75;2.75;1.75
62778;PMS7003;48821;48.796;2.396;2022-12-22T03:54:12;2.75;1.00;0.25
62778;PMS7003;48821;48.796;2.396;2022-12-22T03:55:24;2.00;0.00;0.00
62778;PMS7003;48821;48.796;2.396;2022-12-22T03:56:34;5.50;1.00;0.00
62778;PMS7003;48821;48.796;2.396;2022-12-22T03:57:44;1.00;0.75;0.25
62778;PMS7003;48821;48.796;2.396;2022-12-22T03:58:55;2.75;1.50;1.00
62778;PMS7003;48821;48.796;2.396;2022-12-22T04:00:05;5.00;2.00;1.00
62778;PMS7003;48821;48.796;2.396;2022-12-22T04:01:16;2.00;1.00;0.00
62778;PMS7003;48821;48.796;2.396;2022-12-22T04:02:26;1.25;0.75;0.25
62778;PMS7003;48821;48.796;2.396;2022-12-22T04:03:37;4.25;4.00;2.00
62778;PMS7003;48821;48.796;2.396;2022-12-22T04:04:47;2.75;1.00;0.25
62778;PMS7003;48821;48.796;2.396;2022-12-22T04:05:57;4.00;2.00;0.00
62778;PMS7003;48821;48.796;2.396;2022-12-22T04:07:08;2.25;2.00;0.50
62778;PMS7003;48821;48.796;2.396;2022-12-22T04:08:18;5.75;2.75;1.00
62778;PMS7003;48821;48.796;2.396;2022-12-22T04:09:29;6.00;1.00;0.00
62778;PMS7003;48821;48.796;2.396;2022-12-22T04:10:39;3.00;1.00;1.00
62778;PMS7003;48821;48.796;2.396;2022-12-22T04:12:08;1.00;1.00;0.50
62778;PMS7003;48821;48.796;2.396;2022-12-22T04:13:37;3.50;1.25;0.25
62778;PMS7003;48821;48.796;2.396;2022-12-22T04:14:47;1.50;1.25;0.00
62778;PMS7003;48821;48.796;2.396;2022-12-22T04:15:57;1.50;1.50;0.50
62778;PMS7003;48821;48.796;2.396;2022-12-22T04:17:08;2.00;2.00;1.00
62778;PMS7003;48821;48.796;2.396;2022-12-22T04:18:18;3.50;1.00;1.00
62778;PMS7003;48821;48.796;2.396;2022-12-22T04:19:29;7.00;1.00;0.00
62778;PMS7003;48821;48.796;2.396;2022-12-22T04:20:40;5.00;1.50;0.75
62778;PMS7003;48821;48.796;2.396;2022-12-22T04:21:50;2.25;1.00;0.25
62778;PMS7003;48821;48.796;2.396;2022-12-22T04:23:00;1.00;1.00;0.00
62778;PMS7003;48821;48.796;2.396;2022-12-22T04:24:11;3.25;2.00;1.00
62778;PMS7003;48821;48.796;2.396;2022-12-22T04:25:23;3.00;1.00;0.00
62778;PMS7003;48821;48.796;2.396;2022-12-22T04:26:34;2.00;1.00;1.00
62778;PMS7003;48821;48.796;2.396;2022-12-22T04:27:45;2.50;1.25;1.00
62778;PMS7003;48821;48.796;2.396;2022-12-22T04:28:55;5.00;1.75;1.75
62778;PMS7003;48821;48.796;2.396;2022-12-22T04:30:06;4.00;0.75;0.00
62778;PMS7003;48821;48.796;2.396;2022-12-22T04:31:17;1.50;1.50;1.00
62778;PMS7003;48821;48.796;2.396;2022-12-22T04:32:28;3.00;1.00;0.75
62778;PMS7003;48821;48.796;2.396;2022-12-22T04:33:38;4.50;1.00;0.00
62778;PMS7003;48821;48.796;2.396;2022-12-22T04:34:49;1.75;1.00;0.00
62778;PMS7003;48821;48.796;2.396;2022-12-22T04:35:59;4.00;1.50;1.00
62778;PMS7003;48821;48.796;2.396;2022-12-22T04:37:09;1.00;0.00;0.00
62778;PMS7003;48821;48.796;2.396;2022-12-22T04:38:20;0.50;0.00;0.00
62778;PMS7003;48821;48.796;2.396;2022-12-22T04:39:30;0.75;0.00;0.00
62778;PMS7003;48821;48.796;2.396;2022-12-22T04:40:40;6.00;0.00;0.00
62778;PMS7003;48821;48.796;2.396;2022-12-22T04:41:51;1.00;1.00;0.00
62778;PMS7003;48821;48.796;2.396;2022-12-22T04:43:01;3.00;1.50;1.00
62778;PMS7003;48821;48.796;2.396;2022-12-22T04:44:11;1.25;1.25;0.75
62778;PMS7003;48821;48.796;2.396;2022-12-22T04:45:22;1.00;1.00;0.25
62778;PMS7003;48821;48.796;2.396;2022-12-22T04:46:32;3.25;1.00;0.00
62778;PMS7003;48821;48.796;2.396;2022-12-22T04:47:42;1.50;0.25;0.00
62778;PMS7003;48821;48.796;2.396;2022-12-22T04:48:53;1.00;1.00;0.50
62778;PMS7003;48821;48.796;2.396;2022-12-22T04:50:03;2.50;1.25;0.25
62778;PMS7003;48821;48.796;2.396;2022-12-22T04:51:14;1.25;0.25;0.00
62778;PMS7003;48821;48.796;2.396;2022-12-22T04:52:24;3.25;1.00;1.00
62778;PMS7003;48821;48.796;2.396;2022-12-22T04:53:35;1.00;1.00;0.50
62778;PMS7003;48821;48.796;2.396;2022-12-22T04:54:45;2.00;0.00;0.00
62778;PMS7003;48821;48.796;2.396;2022-12-22T04:56:00;4.00;0.75;0.75
62778;PMS7003;48821;48.796;2.396;2022-12-22T04:57:12;0.00;0.00;0.00
62778;PMS7003;48821;48.796;2.396;2022-12-22T04:58:23;2.25;0.00;0.00
62778;PMS7003;48821;48.796;2.396;2022-12-22T04:59:33;0.25;0.00;0.00
62778;PMS7003;48821;48.796;2.396;2022-12-22T05:00:44;2.00;0.50;0.00
62778;PMS7003;48821;48.796;2.396;2022-12-22T05:01:54;0.25;0.25;0.00
62778;PMS7003;48821;48.796;2.396;2022-12-22T05:03:05;2.00;0.00;0.00
62778;PMS7003;48821;48.796;2.396;2022-12-22T05:04:16;3.00;1.00;0.00
62778;PMS7003;48821;48.796;2.396;2022-12-22T05:05:26;2.50;0.00;0.00
62778;PMS7003;48821;48.796;2.396;2022-12-22T05:06:36;0.50;0.00;0.00
62778;PMS7003;48821;48.796;2.396;2022-12-22T05:07:47;2.00;0.00;0.00
62778;PMS7003;48821;48.796;2.396;2022-12-22T05:08:57;1.25;0.00;0.00
62778;PMS7003;48821;48.796;2.396;2022-12-22T05:10:08;1.00;0.75;0.00
62778;PMS7003;48821;48.796;2.396;2022-12-22T05:11:19;0.00;0.00;0.00
62778;PMS7003;48821;48.796;2.396;2022-12-22T05:12:29;0.00;0.00;0.00
62778;PMS7003;48821;48.796;2.396;2022-12-22T05:13:58;0.00;0.00;0.00
62778;PMS7003;48821;48.796;2.396;2022-12-22T05:15:09;0.00;0.00;0.00
62778;PMS7003;48821;48.796;2.396;2022-12-22T05:16:20;0.00;0.00;0.00
62778;PMS7003;48821;48.796;2.396;2022-12-22T05:17:30;2.00;0.00;0.00
62778;PMS7003;48821;48.796;2.396;2022-12-22T05:18:41;2.50;0.00;0.00
62778;PMS7003;48821;48.796;2.396;2022-12-22T05:19:52;1.75;0.25;0.00
62778;PMS7003;48821;48.796;2.396;2022-12-22T05:21:05;1.50;0.00;0.00
62778;PMS7003;48821;48.796;2.396;2022-12-22T05:22:20;0.00;0.00;0.00
62778;PMS7003;48821;48.796;2.396;2022-12-22T05:23:30;2.25;0.00;0.00
62778;PMS7003;48821;48.796;2.396;2022-12-22T05:24:40;0.75;0.00;0.00
62778;PMS7003;48821;48.796;2.396;2022-12-22T05:25:51;1.25;0.00;0.00
62778;PMS7003;48821;48.796;2.396;2022-12-22T05:27:01;0.00;0.00;0.00
62778;PMS7003;48821;48.796;2.396;2022-12-22T05:28:12;0.00;0.00;0.00
62778;PMS7003;48821;48.796;2.396;2022-12-22T05:29:22;1.25;0.00;0.00
62778;PMS7003;48821;48.796;2.396;2022-12-22T05:30:32;0.00;0.00;0.00
62778;PMS7003;48821;48.796;2.396;2022-12-22T05:31:43;0.00;0.00;0.00
62778;PMS7003;48821;48.796;2.396;2022-12-22T05:32:53;0.75;0.00;0.00
62778;PMS7003;48821;48.796;2.396;2022-12-22T05:34:03;0.00;0.00;0.00
62778;PMS7003;48821;48.796;2.396;2022-12-22T05:35:14;0.75;0.75;0.00
62778;PMS7003;48821;48.796;2.396;2022-12-22T05:36:25;0.00;0.00;0.00
62778;PMS7003;48821;48.796;2.396;2022-12-22T05:37:35;1.00;0.00;0.00
62778;PMS7003;48821;48.796;2.396;2022-12-22T05:38:45;0.00;0.00;0.00
62778;PMS7003;48821;48.796;2.396;2022-12-22T05:39:56;0.00;0.00;0.00
62778;PMS7003;48821;48.796;2.396;2022-12-22T05:41:06;0.00;0.00;0.00
62778;PMS7003;48821;48.796;2.396;2022-12-22T05:42:17;0.00;0.00;0.00
62778;PMS7003;48821;48.796;2.396;2022-12-22T05:43:44;0.00;0.00;0.00
62778;PMS7003;48821;48.796;2.396;2022-12-22T05:44:54;1.00;0.00;0.00
62778;PMS7003;48821;48.796;2.396;2022-12-22T05:46:06;0.00;0.00;0.00
62778;PMS7003;48821;48.796;2.396;2022-12-22T05:47:18;0.00;0.00;0.00
62778;PMS7003;48821;48.796;2.396;2022-12-22T05:48:28;0.50;0.00;0.00
62778;PMS7003;48821;48.796;2.396;2022-12-22T05:49:39;0.00;0.00;0.00
62778;PMS7003;48821;48.796;2.396;2022-12-22T05:50:49;1.00;0.00;0.00
62778;PMS7003;48821;48.796;2.396;2022-12-22T05:52:00;3.00;0.00;0.00
62778;PMS7003;48821;48.796;2.396;2022-12-22T05:53:10;0.00;0.00;0.00
62778;PMS7003;48821;48.796;2.396;2022-12-22T05:54:20;1.00;0.00;0.00
62778;PMS7003;48821;48.796;2.396;2022-12-22T05:55:31;0.75;0.00;0.00
62778;PMS7003;48821;48.796;2.396;2022-12-22T05:56:41;3.00;0.00;0.00
62778;PMS7003;48821;48.796;2.396;2022-12-22T05:57:52;0.00;0.00;0.00
62778;PMS7003;48821;48.796;2.396;2022-12-22T05:59:02;1.75;0.00;0.00
62778;PMS7003;48821;48.796;2.396;2022-12-22T06:00:13;0.25;0.25;0.00
62778;PMS7003;48821;48.796;2.396;2022-12-22T06:01:25;0.00;0.00;0.00
62778;PMS7003;48821;48.796;2.396;2022-12-22T06:02:35;0.00;0.00;0.00
62778;PMS7003;48821;48.796;2.396;2022-12-22T06:03:45;0.25;0.00;0.00
62778;PMS7003;48821;48.796;2.396;2022-12-22T06:04:56;3.50;0.00;0.00
62778;PMS7003;48821;48.796;2.396;2022-12-22T06:06:06;0.00;0.00;0.00
62778;PMS7003;48821;48.796;2.396;2022-12-22T06:07:16;0.00;0.00;0.00
62778;PMS7003;48821;48.796;2.396;2022-12-22T06:08:27;0.00;0.00;0.00
62778;PMS7003;48821;48.796;2.396;2022-12-22T06:09:37;0.00;0.00;0.00
62778;PMS7003;48821;48.796;2.396;2022-12-22T06:10:48;0.00;0.00;0.00
62778;PMS7003;48821;48.796;2.396;2022-12-22T06:11:59;0.00;0.00;0.00
62778;PMS7003;48821;48.796;2.396;2022-12-22T06:13:09;0.00;0.00;0.00
62778;PMS7003;48821;48.796;2.396;2022-12-22T06:14:19;0.00;0.00;0.00
62778;PMS7003;48821;48.796;2.396;2022-12-22T06:15:30;0.75;0.00;0.00
62778;PMS7003;48821;48.796;2.396;2022-12-22T06:16:40;0.00;0.00;0.00
62778;PMS7003;48821;48.796;2.396;2022-12-22T06:17:50;0.50;0.25;0.00
62778;PMS7003;48821;48.796;2.396;2022-12-22T06:19:01;2.00;0.00;0.00
62778;PMS7003;48821;48.796;2.396;2022-12-22T06:20:12;0.00;0.00;0.00
62778;PMS7003;48821;48.796;2.396;2022-12-22T06:21:22;0.00;0.00;0.00
62778;PMS7003;48821;48.796;2.396;2022-12-22T06:22:33;0.00;0.00;0.00
62778;PMS7003;48821;48.796;2.396;2022-12-22T06:23:43;0.00;0.00;0.00
62778;PMS7003;48821;48.796;2.396;2022-12-22T06:24:54;0.00;0.00;0.00
62778;PMS7003;48821;48.796;2.396;2022-12-22T06:26:04;0.75;0.75;0.00
62778;PMS7003;48821;48.796;2.396;2022-12-22T06:27:14;1.00;0.00;0.00
62778;PMS7003;48821;48.796;2.396;2022-12-22T06:28:25;0.00;0.00;0.00
62778;PMS7003;48821;48.796;2.396;2022-12-22T06:29:35;0.00;0.00;0.00
62778;PMS7003;48821;48.796;2.396;2022-12-22T06:30:46;0.00;0.00;0.00
62778;PMS7003;48821;48.796;2.396;2022-12-22T06:31:57;2.00;0.00;0.00
62778;PMS7003;48821;48.796;2.396;2022-12-22T06:33:07;0.75;0.00;0.00
62778;PMS7003;48821;48.796;2.396;2022-12-22T06:34:18;0.00;0.00;0.00
62778;PMS7003;48821;48.796;2.396;2022-12-22T06:35:28;0.75;0.00;0.00
62778;PMS7003;48821;48.796;2.396;2022-12-22T06:36:38;0.25;0.25;0.00
62778;PMS7003;48821;48.796;2.396;2022-12-22T06:37:49;1.00;1.00;0.00
62778;PMS7003;48821;48.796;2.396;2022-12-22T06:38:59;5.00;1.00;1.00
62778;PMS7003;48821;48.796;2.396;2022-12-22T06:40:09;2.75;1.00;0.75
62778;PMS7003;48821;48.796;2.396;2022-12-22T06:41:20;6.50;1.75;1.00
62778;PMS7003;48821;48.796;2.396;2022-12-22T06:42:49;5.00;2.00;1.00
62778;PMS7003;48821;48.796;2.396;2022-12-22T06:44:17;1.50;1.50;0.00
62778;PMS7003;48821;48.796;2.396;2022-12-22T06:45:28;7.75;2.50;2.00
62778;PMS7003;48821;48.796;2.396;2022-12-22T06:46:38;6.75;2.00;1.00
62778;PMS7003;48821;48.796;2.396;2022-12-22T06:47:48;7.50;4.50;1.25
62778;PMS7003;48821;48.796;2.396;2022-12-22T06:48:59;9.00;5.25;2.00
62778;PMS7003;48821;48.796;2.396;2022-12-22T06:50:09;3.00;2.00;1.00
62778;PMS7003;48821;48.796;2.396;2022-12-22T06:51:20;7.50;2.50;1.00
62778;PMS7003;48821;48.796;2.396;2022-12-22T06:52:30;3.25;1.75;1.00
62778;PMS7003;48821;48.796;2.396;2022-12-22T06:53:40;7.25;3.25;1.00
62778;PMS7003;48821;48.796;2.396;2022-12-22T06:54:50;3.00;3.00;1.75
62778;PMS7003;48821;48.796;2.396;2022-12-22T06:56:01;6.25;2.00;1.00
62778;PMS7003;48821;48.796;2.396;2022-12-22T06:57:11;5.50;3.50;2.00
62778;PMS7003;48821;48.796;2.396;2022-12-22T06:58:23;8.25;3.00;1.50
62778;PMS7003;48821;48.796;2.396;2022-12-22T06:59:33;5.50;2.00;1.00
62778;PMS7003;48821;48.796;2.396;2022-12-22T07:00:43;5.50;3.00;1.25
62778;PMS7003;48821;48.796;2.396;2022-12-22T07:01:57;6.25;3.25;2.00
62778;PMS7003;48821;48.796;2.396;2022-12-22T07:03:07;3.00;2.00;1.00
62778;PMS7003;48821;48.796;2.396;2022-12-22T07:04:18;5.75;3.75;2.00
62778;PMS7003;48821;48.796;2.396;2022-12-22T07:05:30;4.00;2.25;1.00
62778;PMS7003;48821;48.796;2.396;2022-12-22T07:06:40;6.00;3.00;1.75
62778;PMS7003;48821;48.796;2.396;2022-12-22T07:07:51;6.25;4.00;2.00
62778;PMS7003;48821;48.796;2.396;2022-12-22T07:09:02;5.00;3.75;2.00
62778;PMS7003;48821;48.796;2.396;2022-12-22T07:10:13;3.50;3.50;1.50
62778;PMS7003;48821;48.796;2.396;2022-12-22T07:11:23;10.25;3.00;2.00
62778;PMS7003;48821;48.796;2.396;2022-12-22T07:12:34;8.75;3.75;2.00
62778;PMS7003;48821;48.796;2.396;2022-12-22T07:13:44;7.50;3.00;2.00
62778;PMS7003;48821;48.796;2.396;2022-12-22T07:14:55;4.50;2.50;1.75
62778;PMS7003;48821;48.796;2.396;2022-12-22T07:16:05;3.75;1.00;0.25
62778;PMS7003;48821;48.796;2.396;2022-12-22T07:17:17;9.00;4.25;2.00
62778;PMS7003;48821;48.796;2.396;2022-12-22T07:18:31;5.00;3.25;2.00
62778;PMS7003;48821;48.796;2.396;2022-12-22T07:19:45;9.75;4.50;2.00
62778;PMS7003;48821;48.796;2.396;2022-12-22T07:20:55;4.25;3.25;1.75
62778;PMS7003;48821;48.796;2.396;2022-12-22T07:22:06;11.50;3.00;2.00
62778;PMS7003;48821;48.796;2.396;2022-12-22T07:23:16;7.00;3.75;1.50
62778;PMS7003;48821;48.796;2.396;2022-12-22T07:24:26;4.75;3.75;1.50
62778;PMS7003;48821;48.796;2.396;2022-12-22T07:25:38;3.75;3.50;2.00
62778;PMS7003;48821;48.796;2.396;2022-12-22T07:26:48;6.75;5.25;2.00
62778;PMS7003;48821;48.796;2.396;2022-12-22T07:27:59;6.25;4.00;2.75
62778;PMS7003;48821;48.796;2.396;2022-12-22T07:29:09;5.25;4.00;2.00
62778;PMS7003;48821;48.796;2.396;2022-12-22T07:30:20;3.50;3.50;2.00
62778;PMS7003;48821;48.796;2.396;2022-12-22T07:31:30;10.25;5.25;2.25
62778;PMS7003;48821;48.796;2.396;2022-12-22T07:32:40;7.50;3.50;2.00
62778;PMS7003;48821;48.796;2.396;2022-12-22T07:33:51;5.50;3.50;2.00
62778;PMS7003;48821;48.796;2.396;2022-12-22T07:35:01;11.25;3.75;3.00
62778;PMS7003;48821;48.796;2.396;2022-12-22T07:36:13;12.25;7.50;3.00
62778;PMS7003;48821;48.796;2.396;2022-12-22T07:37:25;5.00;4.25;2.75
62778;PMS7003;48821;48.796;2.396;2022-12-22T07:38:36;5.50;3.25;2.00
62778;PMS7003;48821;48.796;2.396;2022-12-22T07:39:48;8.50;3.25;2.00
62778;PMS7003;48821;48.796;2.396;2022-12-22T07:40:58;8.25;6.00;1.00
62778;PMS7003;48821;48.796;2.396;2022-12-22T07:42:12;8.50;3.00;2.00
62778;PMS7003;48821;48.796;2.396;2022-12-22T07:43:41;7.75;4.75;2.00
62778;PMS7003;48821;48.796;2.396;2022-12-22T07:44:51;8.25;1.00;0.00
62778;PMS7003;48821;48.796;2.396;2022-12-22T07:46:01;10.50;6.00;3.25
62778;PMS7003;48821;48.796;2.396;2022-12-22T07:47:15;7.50;4.50;2.75
62778;PMS7003;48821;48.796;2.396;2022-12-22T07:48:25;4.25;3.00;1.25
62778;PMS7003;48821;48.796;2.396;2022-12-22T07:49:54;6.50;3.50;2.00
62778;PMS7003;48821;48.796;2.396;2022-12-22T07:51:23;12.75;7.00;3.75
62778;PMS7003;48821;48.796;2.396;2022-12-22T07:52:33;9.50;7.00;2.00
62778;PMS7003;48821;48.796;2.396;2022-12-22T07:53:44;9.25;4.50;2.25
62778;PMS7003;48821;48.796;2.396;2022-12-22T07:54:54;7.00;3.50;3.00
62778;PMS7003;48821;48.796;2.396;2022-12-22T07:56:04;8.00;4.00;2.00
62778;PMS7003;48821;48.796;2.396;2022-12-22T07:57:15;4.00;3.00;2.25
62778;PMS7003;48821;48.796;2.396;2022-12-22T07:58:27;8.00;5.00;3.00